< < Back
Terminal Aerodrome Forecast


Current Version              Previous Versions:   1  2  3  4  5  6  7  8  9  

Terminal Aerodrome Forecast

720
FTUS42 KGSP 231500 AAA
TAFCLT
TAF AMD
KCLT 231510Z 2315/2412 04010G18KT P6SM VCSH BKN035 OVC100
      TEMPO 2315/2318 -SHRA
     FM231800 04010G18KT P6SM VCSH SCT040 OVC120
     FM232100 03008KT P6SM SCT050 BKN150=

Latest METAR

434
SAUS70 KWBC 240000 RRA
MTRCLT
METAR KCLT 232352Z 01008KT 10SM BKN075 BKN100 OVC200 14/09 A3030 RMK AO2
SLP257 60001 T01390094 10156 20139 53002


USA.gov is the U.S. government's official web portal to all federal, state and local government web resources and services.